sensor_id;sensor_type;location;lat;lon;timestamp;P1;durP1;ratioP1;P2;durP2;ratioP2
75216;SDS011;63800;51.972;5.682;2023-03-01T00:01:50;7.57;;;4.80;;
75216;SDS011;63800;51.972;5.682;2023-03-01T00:04:15;6.50;;;4.60;;
75216;SDS011;63800;51.972;5.682;2023-03-01T00:06:44;7.63;;;5.10;;
75216;SDS011;63800;51.972;5.682;2023-03-01T00:09:13;7.97;;;5.03;;
75216;SDS011;63800;51.972;5.682;2023-03-01T00:11:40;7.10;;;4.85;;
75216;SDS011;63800;51.972;5.682;2023-03-01T00:14:05;6.65;;;4.65;;
75216;SDS011;63800;51.972;5.682;2023-03-01T00:16:35;7.95;;;4.80;;
75216;SDS011;63800;51.972;5.682;2023-03-01T00:19:04;6.97;;;4.82;;
75216;SDS011;63800;51.972;5.682;2023-03-01T00:21:32;7.93;;;4.85;;
75216;SDS011;63800;51.972;5.682;2023-03-01T00:24:00;8.77;;;5.03;;
75216;SDS011;63800;51.972;5.682;2023-03-01T00:26:26;6.13;;;4.28;;
75216;SDS011;63800;51.972;5.682;2023-03-01T00:28:52;7.53;;;4.60;;
75216;SDS011;63800;51.972;5.682;2023-03-01T00:31:18;7.57;;;4.88;;
75216;SDS011;63800;51.972;5.682;2023-03-01T00:33:45;8.20;;;5.43;;
75216;SDS011;63800;51.972;5.682;2023-03-01T00:36:12;7.53;;;4.55;;
75216;SDS011;63800;51.972;5.682;2023-03-01T00:38:41;8.13;;;4.88;;
75216;SDS011;63800;51.972;5.682;2023-03-01T00:41:09;7.10;;;4.95;;
75216;SDS011;63800;51.972;5.682;2023-03-01T00:43:36;6.00;;;4.57;;
75216;SDS011;63800;51.972;5.682;2023-03-01T00:46:03;7.80;;;5.18;;
75216;SDS011;63800;51.972;5.682;2023-03-01T00:48:30;7.80;;;4.97;;
75216;SDS011;63800;51.972;5.682;2023-03-01T00:50:56;7.82;;;4.93;;
75216;SDS011;63800;51.972;5.682;2023-03-01T00:53:22;6.53;;;5.00;;
75216;SDS011;63800;51.972;5.682;2023-03-01T00:55:47;6.30;;;4.70;;
75216;SDS011;63800;51.972;5.682;2023-03-01T00:58:12;5.85;;;4.88;;
75216;SDS011;63800;51.972;5.682;2023-03-01T01:00:38;7.63;;;4.78;;
75216;SDS011;63800;51.972;5.682;2023-03-01T01:03:03;7.88;;;5.13;;
75216;SDS011;63800;51.972;5.682;2023-03-01T01:05:29;6.60;;;5.38;;
75216;SDS011;63800;51.972;5.682;2023-03-01T01:07:54;7.53;;;5.18;;
75216;SDS011;63800;51.972;5.682;2023-03-01T01:10:20;5.72;;;4.32;;
75216;SDS011;63800;51.972;5.682;2023-03-01T01:12:45;8.32;;;5.05;;
75216;SDS011;63800;51.972;5.682;2023-03-01T01:15:11;8.68;;;4.97;;
75216;SDS011;63800;51.972;5.682;2023-03-01T01:17:39;8.93;;;4.97;;
75216;SDS011;63800;51.972;5.682;2023-03-01T01:20:05;6.55;;;4.95;;
75216;SDS011;63800;51.972;5.682;2023-03-01T01:22:31;9.18;;;5.38;;
75216;SDS011;63800;51.972;5.682;2023-03-01T01:24:56;6.57;;;4.80;;
75216;SDS011;63800;51.972;5.682;2023-03-01T01:27:22;7.35;;;4.88;;
75216;SDS011;63800;51.972;5.682;2023-03-01T01:29:47;7.80;;;5.18;;
75216;SDS011;63800;51.972;5.682;2023-03-01T01:32:13;9.40;;;5.53;;
75216;SDS011;63800;51.972;5.682;2023-03-01T01:34:38;7.75;;;5.18;;
75216;SDS011;63800;51.972;5.682;2023-03-01T01:37:06;6.68;;;4.93;;
75216;SDS011;63800;51.972;5.682;2023-03-01T01:39:33;6.85;;;5.10;;
75216;SDS011;63800;51.972;5.682;2023-03-01T01:42:01;7.85;;;5.38;;
75216;SDS011;63800;51.972;5.682;2023-03-01T01:44:27;7.28;;;5.13;;
75216;SDS011;63800;51.972;5.682;2023-03-01T01:46:55;8.48;;;5.22;;
75216;SDS011;63800;51.972;5.682;2023-03-01T01:49:42;6.97;;;5.50;;
75216;SDS011;63800;51.972;5.682;2023-03-01T01:52:17;6.78;;;4.97;;
75216;SDS011;63800;51.972;5.682;2023-03-01T01:57:37;8.65;;;5.32;;
75216;SDS011;63800;51.972;5.682;2023-03-01T02:00:18;7.70;;;4.85;;
75216;SDS011;63800;51.972;5.682;2023-03-01T02:02:46;6.90;;;4.93;;
75216;SDS011;63800;51.972;5.682;2023-03-01T02:05:19;8.18;;;5.10;;
75216;SDS011;63800;51.972;5.682;2023-03-01T02:07:51;7.60;;;5.60;;
75216;SDS011;63800;51.972;5.682;2023-03-01T02:10:17;7.53;;;5.03;;
75216;SDS011;63800;51.972;5.682;2023-03-01T02:12:42;9.48;;;5.03;;
75216;SDS011;63800;51.972;5.682;2023-03-01T02:15:08;7.03;;;5.55;;
75216;SDS011;63800;51.972;5.682;2023-03-01T02:17:34;6.40;;;4.68;;
75216;SDS011;63800;51.972;5.682;2023-03-01T02:20:35;9.05;;;5.40;;
75216;SDS011;63800;51.972;5.682;2023-03-01T02:23:11;8.32;;;5.13;;
75216;SDS011;63800;51.972;5.682;2023-03-01T02:30:43;9.55;;;4.85;;
75216;SDS011;63800;51.972;5.682;2023-03-01T02:33:31;8.27;;;4.63;;
75216;SDS011;63800;51.972;5.682;2023-03-01T02:36:02;6.47;;;4.63;;
75216;SDS011;63800;51.972;5.682;2023-03-01T02:38:32;6.45;;;4.30;;
75216;SDS011;63800;51.972;5.682;2023-03-01T02:40:57;5.57;;;4.32;;
75216;SDS011;63800;51.972;5.682;2023-03-01T02:43:26;7.30;;;4.97;;
75216;SDS011;63800;51.972;5.682;2023-03-01T02:45:56;7.93;;;4.85;;
75216;SDS011;63800;51.972;5.682;2023-03-01T02:48:24;6.00;;;4.32;;
75216;SDS011;63800;51.972;5.682;2023-03-01T02:50:57;7.28;;;4.45;;
75216;SDS011;63800;51.972;5.682;2023-03-01T02:56:21;6.45;;;4.38;;
75216;SDS011;63800;51.972;5.682;2023-03-01T02:58:47;5.95;;;4.18;;
75216;SDS011;63800;51.972;5.682;2023-03-01T03:01:17;5.63;;;4.60;;
75216;SDS011;63800;51.972;5.682;2023-03-01T03:03:43;6.15;;;4.18;;
75216;SDS011;63800;51.972;5.682;2023-03-01T03:06:08;6.10;;;4.40;;
75216;SDS011;63800;51.972;5.682;2023-03-01T03:08:34;5.28;;;4.20;;
75216;SDS011;63800;51.972;5.682;2023-03-01T03:11:00;4.75;;;3.88;;
75216;SDS011;63800;51.972;5.682;2023-03-01T03:13:26;8.48;;;3.80;;
75216;SDS011;63800;51.972;5.682;2023-03-01T03:15:53;7.45;;;4.70;;
75216;SDS011;63800;51.972;5.682;2023-03-01T03:18:20;6.13;;;4.07;;
75216;SDS011;63800;51.972;5.682;2023-03-01T03:20:45;5.03;;;4.30;;
75216;SDS011;63800;51.972;5.682;2023-03-01T03:23:11;6.43;;;4.30;;
75216;SDS011;63800;51.972;5.682;2023-03-01T03:25:37;6.68;;;4.05;;
75216;SDS011;63800;51.972;5.682;2023-03-01T03:28:03;8.00;;;4.78;;
75216;SDS011;63800;51.972;5.682;2023-03-01T03:30:34;7.63;;;4.20;;
75216;SDS011;63800;51.972;5.682;2023-03-01T03:33:01;6.03;;;4.25;;
75216;SDS011;63800;51.972;5.682;2023-03-01T03:35:28;6.75;;;5.00;;
75216;SDS011;63800;51.972;5.682;2023-03-01T03:37:56;5.75;;;4.70;;
75216;SDS011;63800;51.972;5.682;2023-03-01T03:43:00;6.55;;;4.38;;
75216;SDS011;63800;51.972;5.682;2023-03-01T03:45:26;6.63;;;4.45;;
75216;SDS011;63800;51.972;5.682;2023-03-01T03:47:51;5.75;;;4.28;;
75216;SDS011;63800;51.972;5.682;2023-03-01T03:50:17;7.65;;;4.75;;
75216;SDS011;63800;51.972;5.682;2023-03-01T03:52:43;6.97;;;4.93;;
75216;SDS011;63800;51.972;5.682;2023-03-01T03:55:10;8.10;;;4.97;;
75216;SDS011;63800;51.972;5.682;2023-03-01T03:57:37;5.50;;;4.32;;
75216;SDS011;63800;51.972;5.682;2023-03-01T04:00:04;6.85;;;4.80;;
75216;SDS011;63800;51.972;5.682;2023-03-01T04:02:38;7.00;;;4.88;;
75216;SDS011;63800;51.972;5.682;2023-03-01T04:05:07;6.72;;;4.68;;
75216;SDS011;63800;51.972;5.682;2023-03-01T04:07:34;7.20;;;4.57;;
75216;SDS011;63800;51.972;5.682;2023-03-01T04:10:01;5.80;;;4.57;;
75216;SDS011;63800;51.972;5.682;2023-03-01T04:12:28;8.55;;;4.53;;
75216;SDS011;63800;51.972;5.682;2023-03-01T04:14:53;8.15;;;4.93;;
75216;SDS011;63800;51.972;5.682;2023-03-01T04:17:19;6.75;;;4.95;;
75216;SDS011;63800;51.972;5.682;2023-03-01T04:19:44;7.13;;;4.57;;
75216;SDS011;63800;51.972;5.682;2023-03-01T04:22:13;7.95;;;4.93;;
75216;SDS011;63800;51.972;5.682;2023-03-01T04:24:42;7.60;;;5.00;;
75216;SDS011;63800;51.972;5.682;2023-03-01T04:27:08;7.07;;;4.68;;
75216;SDS011;63800;51.972;5.682;2023-03-01T04:29:34;7.78;;;5.22;;
75216;SDS011;63800;51.972;5.682;2023-03-01T04:31:59;8.30;;;5.00;;
75216;SDS011;63800;51.972;5.682;2023-03-01T04:34:25;6.95;;;5.13;;
75216;SDS011;63800;51.972;5.682;2023-03-01T04:36:51;8.25;;;4.95;;
75216;SDS011;63800;51.972;5.682;2023-03-01T04:39:17;6.43;;;4.60;;
75216;SDS011;63800;51.972;5.682;2023-03-01T04:41:43;8.25;;;5.25;;
75216;SDS011;63800;51.972;5.682;2023-03-01T04:44:08;7.88;;;5.00;;
75216;SDS011;63800;51.972;5.682;2023-03-01T04:46:34;8.88;;;5.35;;
75216;SDS011;63800;51.972;5.682;2023-03-01T04:49:01;8.00;;;4.82;;
75216;SDS011;63800;51.972;5.682;2023-03-01T04:51:27;7.57;;;5.00;;
75216;SDS011;63800;51.972;5.682;2023-03-01T04:53:53;7.93;;;4.90;;
75216;SDS011;63800;51.972;5.682;2023-03-01T04:56:18;7.60;;;4.70;;
75216;SDS011;63800;51.972;5.682;2023-03-01T04:58:44;7.05;;;4.63;;
75216;SDS011;63800;51.972;5.682;2023-03-01T05:01:19;8.18;;;4.68;;
75216;SDS011;63800;51.972;5.682;2023-03-01T05:03:49;6.22;;;4.28;;
75216;SDS011;63800;51.972;5.682;2023-03-01T05:06:16;7.97;;;5.00;;
75216;SDS011;63800;51.972;5.682;2023-03-01T05:08:43;6.35;;;4.45;;
75216;SDS011;63800;51.972;5.682;2023-03-01T05:11:09;6.57;;;4.68;;
75216;SDS011;63800;51.972;5.682;2023-03-01T05:13:36;6.47;;;4.45;;
75216;SDS011;63800;51.972;5.682;2023-03-01T05:16:03;8.40;;;5.10;;
75216;SDS011;63800;51.972;5.682;2023-03-01T05:18:31;6.60;;;4.60;;
75216;SDS011;63800;51.972;5.682;2023-03-01T05:21:05;6.53;;;4.68;;
75216;SDS011;63800;51.972;5.682;2023-03-01T05:23:32;6.13;;;4.70;;
75216;SDS011;63800;51.972;5.682;2023-03-01T05:25:59;7.45;;;4.40;;
75216;SDS011;63800;51.972;5.682;2023-03-01T05:28:26;6.93;;;5.07;;
75216;SDS011;63800;51.972;5.682;2023-03-01T05:30:53;6.35;;;4.50;;
75216;SDS011;63800;51.972;5.682;2023-03-01T05:33:18;6.75;;;4.80;;
75216;SDS011;63800;51.972;5.682;2023-03-01T05:35:46;6.70;;;4.85;;
75216;SDS011;63800;51.972;5.682;2023-03-01T05:38:13;6.75;;;5.30;;
75216;SDS011;63800;51.972;5.682;2023-03-01T05:40:43;6.82;;;4.43;;
75216;SDS011;63800;51.972;5.682;2023-03-01T05:43:10;6.93;;;4.72;;
75216;SDS011;63800;51.972;5.682;2023-03-01T05:45:37;6.93;;;4.97;;
75216;SDS011;63800;51.972;5.682;2023-03-01T05:48:04;6.82;;;4.70;;
75216;SDS011;63800;51.972;5.682;2023-03-01T05:50:32;5.97;;;4.50;;
75216;SDS011;63800;51.972;5.682;2023-03-01T05:53:01;7.82;;;4.60;;
75216;SDS011;63800;51.972;5.682;2023-03-01T05:55:31;7.55;;;4.90;;
75216;SDS011;63800;51.972;5.682;2023-03-01T05:57:58;6.97;;;4.80;;
75216;SDS011;63800;51.972;5.682;2023-03-01T06:00:25;7.63;;;4.80;;
75216;SDS011;63800;51.972;5.682;2023-03-01T06:02:50;6.97;;;4.13;;
75216;SDS011;63800;51.972;5.682;2023-03-01T06:05:16;6.80;;;4.65;;
75216;SDS011;63800;51.972;5.682;2023-03-01T06:07:42;7.32;;;4.93;;
75216;SDS011;63800;51.972;5.682;2023-03-01T06:10:09;7.18;;;4.43;;
75216;SDS011;63800;51.972;5.682;2023-03-01T06:12:36;7.13;;;5.10;;
75216;SDS011;63800;51.972;5.682;2023-03-01T06:15:02;7.30;;;4.68;;
75216;SDS011;63800;51.972;5.682;2023-03-01T06:17:30;10.43;;;4.88;;
75216;SDS011;63800;51.972;5.682;2023-03-01T06:19:56;8.40;;;4.78;;
75216;SDS011;63800;51.972;5.682;2023-03-01T06:22:22;7.65;;;4.60;;
75216;SDS011;63800;51.972;5.682;2023-03-01T06:24:47;6.38;;;4.45;;
75216;SDS011;63800;51.972;5.682;2023-03-01T06:27:13;8.00;;;4.88;;
75216;SDS011;63800;51.972;5.682;2023-03-01T06:29:38;7.10;;;4.88;;
75216;SDS011;63800;51.972;5.682;2023-03-01T06:32:04;6.28;;;4.70;;
75216;SDS011;63800;51.972;5.682;2023-03-01T06:34:29;7.35;;;4.90;;
75216;SDS011;63800;51.972;5.682;2023-03-01T06:36:56;6.65;;;4.40;;
75216;SDS011;63800;51.972;5.682;2023-03-01T06:39:21;8.40;;;4.82;;
75216;SDS011;63800;51.972;5.682;2023-03-01T06:41:47;8.10;;;5.20;;
75216;SDS011;63800;51.972;5.682;2023-03-01T06:44:12;8.38;;;4.95;;
75216;SDS011;63800;51.972;5.682;2023-03-01T06:46:38;6.60;;;4.45;;
75216;SDS011;63800;51.972;5.682;2023-03-01T06:49:05;7.65;;;5.28;;
75216;SDS011;63800;51.972;5.682;2023-03-01T06:51:34;7.05;;;4.60;;
75216;SDS011;63800;51.972;5.682;2023-03-01T06:54:00;8.25;;;4.97;;
75216;SDS011;63800;51.972;5.682;2023-03-01T06:56:26;7.35;;;4.90;;
75216;SDS011;63800;51.972;5.682;2023-03-01T06:58:51;6.25;;;4.50;;
75216;SDS011;63800;51.972;5.682;2023-03-01T07:01:16;6.55;;;4.68;;
75216;SDS011;63800;51.972;5.682;2023-03-01T07:03:42;7.90;;;4.70;;
75216;SDS011;63800;51.972;5.682;2023-03-01T07:06:09;8.70;;;4.68;;
75216;SDS011;63800;51.972;5.682;2023-03-01T07:08:35;6.70;;;5.07;;
75216;SDS011;63800;51.972;5.682;2023-03-01T07:11:00;6.63;;;4.40;;
75216;SDS011;63800;51.972;5.682;2023-03-01T07:13:27;7.45;;;5.05;;
75216;SDS011;63800;51.972;5.682;2023-03-01T07:15:53;9.85;;;4.95;;
75216;SDS011;63800;51.972;5.682;2023-03-01T07:18:18;6.97;;;4.50;;
75216;SDS011;63800;51.972;5.682;2023-03-01T07:20:44;7.80;;;4.50;;
75216;SDS011;63800;51.972;5.682;2023-03-01T07:23:09;8.57;;;4.95;;
75216;SDS011;63800;51.972;5.682;2023-03-01T07:25:34;7.30;;;5.25;;
75216;SDS011;63800;51.972;5.682;2023-03-01T07:28:00;9.77;;;5.28;;
75216;SDS011;63800;51.972;5.682;2023-03-01T07:30:26;7.63;;;4.65;;
75216;SDS011;63800;51.972;5.682;2023-03-01T07:32:53;8.73;;;5.05;;
75216;SDS011;63800;51.972;5.682;2023-03-01T07:35:19;6.95;;;4.82;;
75216;SDS011;63800;51.972;5.682;2023-03-01T07:37:45;7.85;;;5.15;;
75216;SDS011;63800;51.972;5.682;2023-03-01T07:40:10;10.13;;;5.60;;
75216;SDS011;63800;51.972;5.682;2023-03-01T07:42:37;8.38;;;5.40;;
75216;SDS011;63800;51.972;5.682;2023-03-01T07:45:03;6.95;;;4.97;;
75216;SDS011;63800;51.972;5.682;2023-03-01T07:47:29;9.48;;;5.60;;
75216;SDS011;63800;51.972;5.682;2023-03-01T07:49:54;8.50;;;5.25;;
75216;SDS011;63800;51.972;5.682;2023-03-01T07:52:20;9.00;;;5.20;;
75216;SDS011;63800;51.972;5.682;2023-03-01T07:54:45;7.25;;;4.63;;
75216;SDS011;63800;51.972;5.682;2023-03-01T07:57:10;8.38;;;5.63;;
75216;SDS011;63800;51.972;5.682;2023-03-01T07:59:36;7.20;;;5.40;;
75216;SDS011;63800;51.972;5.682;2023-03-01T08:02:02;10.00;;;5.43;;
75216;SDS011;63800;51.972;5.682;2023-03-01T08:04:27;7.75;;;5.20;;
75216;SDS011;63800;51.972;5.682;2023-03-01T08:06:53;8.10;;;4.90;;
75216;SDS011;63800;51.972;5.682;2023-03-01T08:09:19;7.82;;;5.28;;
75216;SDS011;63800;51.972;5.682;2023-03-01T08:11:45;9.02;;;5.72;;
75216;SDS011;63800;51.972;5.682;2023-03-01T08:14:10;7.60;;;5.20;;
75216;SDS011;63800;51.972;5.682;2023-03-01T08:16:36;9.00;;;6.05;;
75216;SDS011;63800;51.972;5.682;2023-03-01T08:19:09;8.65;;;5.93;;
75216;SDS011;63800;51.972;5.682;2023-03-01T08:21:36;9.43;;;5.50;;
75216;SDS011;63800;51.972;5.682;2023-03-01T08:24:02;9.23;;;5.60;;
75216;SDS011;63800;51.972;5.682;2023-03-01T08:26:29;9.07;;;5.75;;
75216;SDS011;63800;51.972;5.682;2023-03-01T08:28:55;8.23;;;5.75;;
75216;SDS011;63800;51.972;5.682;2023-03-01T08:31:25;8.60;;;6.15;;
75216;SDS011;63800;51.972;5.682;2023-03-01T08:34:10;6.65;;;5.30;;
75216;SDS011;63800;51.972;5.682;2023-03-01T08:36:38;10.77;;;6.05;;
75216;SDS011;63800;51.972;5.682;2023-03-01T08:39:05;8.85;;;5.50;;
75216;SDS011;63800;51.972;5.682;2023-03-01T08:41:32;8.55;;;5.57;;
75216;SDS011;63800;51.972;5.682;2023-03-01T08:43:57;8.13;;;5.22;;
75216;SDS011;63800;51.972;5.682;2023-03-01T08:46:26;9.15;;;6.20;;
75216;SDS011;63800;51.972;5.682;2023-03-01T08:48:56;9.10;;;5.78;;
75216;SDS011;63800;51.972;5.682;2023-03-01T08:51:22;10.00;;;5.63;;
75216;SDS011;63800;51.972;5.682;2023-03-01T08:53:49;9.13;;;5.43;;
75216;SDS011;63800;51.972;5.682;2023-03-01T08:56:15;9.80;;;5.97;;
75216;SDS011;63800;51.972;5.682;2023-03-01T08:58:48;7.13;;;5.30;;
75216;SDS011;63800;51.972;5.682;2023-03-01T09:01:15;9.20;;;5.95;;
75216;SDS011;63800;51.972;5.682;2023-03-01T09:03:42;8.30;;;5.43;;
75216;SDS011;63800;51.972;5.682;2023-03-01T09:06:09;9.15;;;5.65;;
75216;SDS011;63800;51.972;5.682;2023-03-01T09:08:36;8.63;;;5.93;;
75216;SDS011;63800;51.972;5.682;2023-03-01T09:11:03;8.02;;;5.40;;
75216;SDS011;63800;51.972;5.682;2023-03-01T09:13:31;9.50;;;6.25;;
75216;SDS011;63800;51.972;5.682;2023-03-01T09:15:57;9.18;;;5.53;;
75216;SDS011;63800;51.972;5.682;2023-03-01T09:18:23;8.63;;;5.53;;
75216;SDS011;63800;51.972;5.682;2023-03-01T09:20:49;9.18;;;5.78;;
75216;SDS011;63800;51.972;5.682;2023-03-01T09:23:14;8.15;;;5.30;;
75216;SDS011;63800;51.972;5.682;2023-03-01T09:25:39;7.50;;;5.55;;
75216;SDS011;63800;51.972;5.682;2023-03-01T09:28:05;7.65;;;5.03;;
75216;SDS011;63800;51.972;5.682;2023-03-01T09:30:30;9.35;;;5.43;;
75216;SDS011;63800;51.972;5.682;2023-03-01T09:32:56;8.60;;;5.22;;
75216;SDS011;63800;51.972;5.682;2023-03-01T09:35:22;8.23;;;5.10;;
75216;SDS011;63800;51.972;5.682;2023-03-01T09:37:48;10.05;;;4.80;;
75216;SDS011;63800;51.972;5.682;2023-03-01T09:40:19;10.00;;;5.22;;
75216;SDS011;63800;51.972;5.682;2023-03-01T09:42:54;6.57;;;4.40;;
75216;SDS011;63800;51.972;5.682;2023-03-01T09:45:35;6.97;;;4.78;;
75216;SDS011;63800;51.972;5.682;2023-03-01T09:48:07;9.50;;;4.78;;
75216;SDS011;63800;51.972;5.682;2023-03-01T09:50:41;7.78;;;4.63;;
75216;SDS011;63800;51.972;5.682;2023-03-01T09:53:42;7.43;;;4.47;;
75216;SDS011;63800;51.972;5.682;2023-03-01T10:04:45;9.13;;;4.22;;
75216;SDS011;63800;51.972;5.682;2023-03-01T10:09:52;5.38;;;4.00;;
75216;SDS011;63800;51.972;5.682;2023-03-01T10:12:18;6.75;;;4.13;;
75216;SDS011;63800;51.972;5.682;2023-03-01T10:17:24;6.90;;;4.25;;
75216;SDS011;63800;51.972;5.682;2023-03-01T10:20:19;9.32;;;5.20;;
75216;SDS011;63800;51.972;5.682;2023-03-01T10:22:50;7.35;;;4.45;;
75216;SDS011;63800;51.972;5.682;2023-03-01T10:27:52;9.30;;;4.93;;
75216;SDS011;63800;51.972;5.682;2023-03-01T10:30:28;6.68;;;4.53;;
75216;SDS011;63800;51.972;5.682;2023-03-01T10:32:59;5.63;;;4.05;;
75216;SDS011;63800;51.972;5.682;2023-03-01T10:35:27;7.47;;;4.88;;
75216;SDS011;63800;51.972;5.682;2023-03-01T10:38:07;7.55;;;4.75;;
75216;SDS011;63800;51.972;5.682;2023-03-01T10:40:41;6.85;;;4.55;;
75216;SDS011;63800;51.972;5.682;2023-03-01T10:43:22;5.28;;;3.75;;
75216;SDS011;63800;51.972;5.682;2023-03-01T10:45:50;7.47;;;4.45;;
75216;SDS011;63800;51.972;5.682;2023-03-01T10:48:17;6.13;;;4.78;;
75216;SDS011;63800;51.972;5.682;2023-03-01T10:55:56;7.40;;;4.90;;
75216;SDS011;63800;51.972;5.682;2023-03-01T10:58:23;9.10;;;5.03;;
75216;SDS011;63800;51.972;5.682;2023-03-01T11:00:52;7.57;;;5.20;;
75216;SDS011;63800;51.972;5.682;2023-03-01T11:03:21;10.32;;;5.63;;
75216;SDS011;63800;51.972;5.682;2023-03-01T11:05:59;8.57;;;5.45;;
75216;SDS011;63800;51.972;5.682;2023-03-01T11:08:38;9.30;;;5.95;;
75216;SDS011;63800;51.972;5.682;2023-03-01T11:13:34;8.45;;;5.60;;
75216;SDS011;63800;51.972;5.682;2023-03-01T11:16:01;9.63;;;6.10;;
75216;SDS011;63800;51.972;5.682;2023-03-01T11:18:37;7.95;;;5.82;;
75216;SDS011;63800;51.972;5.682;2023-03-01T11:21:02;11.43;;;6.40;;
75216;SDS011;63800;51.972;5.682;2023-03-01T11:23:29;10.85;;;6.05;;
75216;SDS011;63800;51.972;5.682;2023-03-01T11:25:58;9.50;;;5.47;;
75216;SDS011;63800;51.972;5.682;2023-03-01T11:28:30;7.90;;;5.20;;
75216;SDS011;63800;51.972;5.682;2023-03-01T11:30:57;9.00;;;5.45;;
75216;SDS011;63800;51.972;5.682;2023-03-01T11:38:54;6.63;;;4.57;;
75216;SDS011;63800;51.972;5.682;2023-03-01T11:41:21;6.70;;;4.35;;
75216;SDS011;63800;51.972;5.682;2023-03-01T11:43:52;8.57;;;4.90;;
75216;SDS011;63800;51.972;5.682;2023-03-01T12:08:20;6.85;;;4.28;;
75216;SDS011;63800;51.972;5.682;2023-03-01T12:18:54;5.32;;;4.10;;
75216;SDS011;63800;51.972;5.682;2023-03-01T12:30:10;5.07;;;4.15;;
75216;SDS011;63800;51.972;5.682;2023-03-01T12:44:23;4.68;;;4.15;;
75216;SDS011;63800;51.972;5.682;2023-03-01T12:49:41;5.15;;;4.20;;
75216;SDS011;63800;51.972;5.682;2023-03-01T12:52:21;5.72;;;5.03;;
75216;SDS011;63800;51.972;5.682;2023-03-01T12:54:54;5.32;;;4.40;;
75216;SDS011;63800;51.972;5.682;2023-03-01T12:57:27;5.38;;;4.43;;
75216;SDS011;63800;51.972;5.682;2023-03-01T13:03:05;7.75;;;4.57;;
75216;SDS011;63800;51.972;5.682;2023-03-01T13:06:06;6.63;;;4.78;;
75216;SDS011;63800;51.972;5.682;2023-03-01T13:08:58;6.15;;;4.70;;
75216;SDS011;63800;51.972;5.682;2023-03-01T13:11:32;5.53;;;5.03;;
75216;SDS011;63800;51.972;5.682;2023-03-01T13:17:28;6.28;;;4.93;;
75216;SDS011;63800;51.972;5.682;2023-03-01T13:19:57;5.38;;;4.88;;
75216;SDS011;63800;51.972;5.682;2023-03-01T13:22:27;6.05;;;4.82;;
75216;SDS011;63800;51.972;5.682;2023-03-01T13:25:02;6.82;;;5.15;;
75216;SDS011;63800;51.972;5.682;2023-03-01T13:27:41;6.57;;;4.65;;
75216;SDS011;63800;51.972;5.682;2023-03-01T13:30:39;4.85;;;4.35;;
75216;SDS011;63800;51.972;5.682;2023-03-01T13:35:53;5.97;;;5.10;;
75216;SDS011;63800;51.972;5.682;2023-03-01T13:38:36;7.88;;;4.93;;
75216;SDS011;63800;51.972;5.682;2023-03-01T13:41:13;8.13;;;5.20;;
75216;SDS011;63800;51.972;5.682;2023-03-01T13:44:01;6.57;;;5.03;;
75216;SDS011;63800;51.972;5.682;2023-03-01T13:46:43;6.18;;;4.63;;
75216;SDS011;63800;51.972;5.682;2023-03-01T13:49:11;7.32;;;4.88;;
75216;SDS011;63800;51.972;5.682;2023-03-01T13:51:41;6.63;;;5.07;;
75216;SDS011;63800;51.972;5.682;2023-03-01T13:54:09;7.88;;;5.10;;
75216;SDS011;63800;51.972;5.682;2023-03-01T13:56:37;6.85;;;4.97;;
75216;SDS011;63800;51.972;5.682;2023-03-01T13:59:12;5.97;;;4.95;;
75216;SDS011;63800;51.972;5.682;2023-03-01T14:01:39;7.75;;;4.82;;
75216;SDS011;63800;51.972;5.682;2023-03-01T14:06:47;10.05;;;5.15;;
75216;SDS011;63800;51.972;5.682;2023-03-01T14:09:17;5.05;;;4.55;;
75216;SDS011;63800;51.972;5.682;2023-03-01T14:14:30;5.63;;;4.68;;
75216;SDS011;63800;51.972;5.682;2023-03-01T14:19:46;6.55;;;4.93;;
75216;SDS011;63800;51.972;5.682;2023-03-01T14:22:23;7.18;;;4.50;;
75216;SDS011;63800;51.972;5.682;2023-03-01T14:27:17;7.00;;;4.60;;
75216;SDS011;63800;51.972;5.682;2023-03-01T14:29:44;5.97;;;4.88;;
75216;SDS011;63800;51.972;5.682;2023-03-01T14:32:20;6.18;;;5.00;;
75216;SDS011;63800;51.972;5.682;2023-03-01T14:34:49;6.15;;;4.57;;
75216;SDS011;63800;51.972;5.682;2023-03-01T14:37:24;6.82;;;4.97;;
75216;SDS011;63800;51.972;5.682;2023-03-01T14:39:49;6.00;;;4.50;;
75216;SDS011;63800;51.972;5.682;2023-03-01T14:42:15;6.13;;;4.55;;
75216;SDS011;63800;51.972;5.682;2023-03-01T14:44:43;7.70;;;4.78;;
75216;SDS011;63800;51.972;5.682;2023-03-01T14:47:12;5.88;;;4.45;;
75216;SDS011;63800;51.972;5.682;2023-03-01T14:49:40;6.85;;;5.10;;
75216;SDS011;63800;51.972;5.682;2023-03-01T14:52:17;6.47;;;4.60;;
75216;SDS011;63800;51.972;5.682;2023-03-01T14:54:50;6.80;;;4.57;;
75216;SDS011;63800;51.972;5.682;2023-03-01T14:57:19;6.15;;;4.68;;
75216;SDS011;63800;51.972;5.682;2023-03-01T14:59:47;7.47;;;4.63;;
75216;SDS011;63800;51.972;5.682;2023-03-01T15:02:16;5.25;;;3.90;;
75216;SDS011;63800;51.972;5.682;2023-03-01T15:04:48;7.88;;;4.60;;
75216;SDS011;63800;51.972;5.682;2023-03-01T15:07:16;6.20;;;4.57;;
75216;SDS011;63800;51.972;5.682;2023-03-01T15:09:42;7.43;;;4.55;;
75216;SDS011;63800;51.972;5.682;2023-03-01T15:14:53;5.78;;;4.47;;
75216;SDS011;63800;51.972;5.682;2023-03-01T15:19:59;5.63;;;4.15;;
75216;SDS011;63800;51.972;5.682;2023-03-01T15:22:27;8.10;;;4.22;;
75216;SDS011;63800;51.972;5.682;2023-03-01T15:24:53;6.30;;;4.03;;
75216;SDS011;63800;51.972;5.682;2023-03-01T15:27:20;5.63;;;4.03;;
75216;SDS011;63800;51.972;5.682;2023-03-01T15:29:52;7.40;;;4.57;;
75216;SDS011;63800;51.972;5.682;2023-03-01T15:32:32;6.13;;;4.30;;
75216;SDS011;63800;51.972;5.682;2023-03-01T15:34:59;8.93;;;3.90;;
75216;SDS011;63800;51.972;5.682;2023-03-01T15:38:00;5.10;;;3.88;;
75216;SDS011;63800;51.972;5.682;2023-03-01T15:40:20;4.95;;;3.60;;
75216;SDS011;63800;51.972;5.682;2023-03-01T15:42:49;5.53;;;3.50;;
75216;SDS011;63800;51.972;5.682;2023-03-01T15:47:45;8.40;;;3.97;;
75216;SDS011;63800;51.972;5.682;2023-03-01T15:50:16;4.72;;;3.28;;
75216;SDS011;63800;51.972;5.682;2023-03-01T15:52:45;6.38;;;3.75;;
75216;SDS011;63800;51.972;5.682;2023-03-01T15:55:18;4.55;;;3.40;;
75216;SDS011;63800;51.972;5.682;2023-03-01T15:57:48;4.80;;;3.30;;
75216;SDS011;63800;51.972;5.682;2023-03-01T16:00:15;4.72;;;3.65;;
75216;SDS011;63800;51.972;5.682;2023-03-01T16:02:42;4.13;;;3.08;;
75216;SDS011;63800;51.972;5.682;2023-03-01T16:05:16;4.82;;;3.22;;
75216;SDS011;63800;51.972;5.682;2023-03-01T16:07:42;5.65;;;3.55;;
75216;SDS011;63800;51.972;5.682;2023-03-01T16:10:08;4.07;;;2.90;;
75216;SDS011;63800;51.972;5.682;2023-03-01T16:12:33;4.75;;;3.17;;
75216;SDS011;63800;51.972;5.682;2023-03-01T16:14:59;6.30;;;3.28;;
75216;SDS011;63800;51.972;5.682;2023-03-01T16:17:24;4.40;;;3.05;;
75216;SDS011;63800;51.972;5.682;2023-03-01T16:19:50;6.50;;;3.25;;
75216;SDS011;63800;51.972;5.682;2023-03-01T16:22:16;5.10;;;3.35;;
75216;SDS011;63800;51.972;5.682;2023-03-01T16:24:41;5.43;;;3.00;;
75216;SDS011;63800;51.972;5.682;2023-03-01T16:27:07;3.75;;;3.05;;
75216;SDS011;63800;51.972;5.682;2023-03-01T16:29:32;4.10;;;2.80;;
75216;SDS011;63800;51.972;5.682;2023-03-01T16:32:01;6.70;;;3.10;;
75216;SDS011;63800;51.972;5.682;2023-03-01T16:34:27;5.40;;;2.85;;
75216;SDS011;63800;51.972;5.682;2023-03-01T16:36:52;5.90;;;3.50;;
75216;SDS011;63800;51.972;5.682;2023-03-01T16:39:17;4.22;;;2.92;;
75216;SDS011;63800;51.972;5.682;2023-03-01T16:41:43;4.32;;;2.85;;
75216;SDS011;63800;51.972;5.682;2023-03-01T16:44:08;5.30;;;3.03;;
75216;SDS011;63800;51.972;5.682;2023-03-01T16:46:34;3.97;;;2.97;;
75216;SDS011;63800;51.972;5.682;2023-03-01T16:48:59;5.35;;;2.95;;
75216;SDS011;63800;51.972;5.682;2023-03-01T16:51:25;4.85;;;3.00;;
75216;SDS011;63800;51.972;5.682;2023-03-01T16:53:51;5.00;;;3.15;;
75216;SDS011;63800;51.972;5.682;2023-03-01T16:56:17;5.38;;;3.15;;
75216;SDS011;63800;51.972;5.682;2023-03-01T16:58:43;4.47;;;3.08;;
75216;SDS011;63800;51.972;5.682;2023-03-01T17:01:13;4.70;;;3.10;;